Time;durP1;ratioP1;P1;durP2;ratioP2;P2;SDS_P1;SDS_P2;PMS_P1;PMS_P2;Temp;Humidity;BMP_temperature;BMP_pressure;BME280_temperature;BME280_humidity;BME280_pressure;Samples;Min_cycle;Max_cycle;Signal;HPM_P1;HPM_P2
2021/05/18 00:00:34;;;;;;;26.97;20.03;;;10.50;99.90;;;;;;5043626;28;20676;-64
2021/05/18 00:03:01;;;;;;;26.97;19.37;;;10.60;99.90;;;;;;5053309;28;20194;-65
2021/05/18 00:05:27;;;;;;;28.57;18.90;;;10.50;99.90;;;;;;5044430;28;20240;-65
2021/05/18 00:08:01;;;;;;;24.17;18.80;;;10.50;99.90;;;;;;5033321;28;20171;-65
2021/05/18 00:13:17;;;;;;;26.63;19.00;;;10.60;99.90;;;;;;5044528;28;20267;-64
2021/05/18 00:15:44;;;;;;;26.20;18.33;;;10.60;99.90;;;;;;5032953;28;20219;-65
2021/05/18 00:18:10;;;;;;;26.37;20.17;;;10.60;99.90;;;;;;5039728;28;20261;-63
2021/05/18 00:20:36;;;;;;;28.30;20.23;;;10.70;99.90;;;;;;5052513;28;20229;-64
2021/05/18 00:23:04;;;;;;;31.90;21.13;;;10.70;99.90;;;;;;5040644;28;20202;-65
2021/05/18 00:25:30;;;;;;;24.90;20.03;;;10.70;99.90;;;;;;5032281;28;20184;-65
2021/05/18 00:27:56;;;;;;;26.13;19.47;;;10.70;99.90;;;;;;5043370;28;20178;-65
2021/05/18 00:30:23;;;;;;;24.83;20.47;;;10.70;99.90;;;;;;5052162;28;20175;-67
2021/05/18 00:32:49;;;;;;;28.33;21.67;;;10.70;99.90;;;;;;5048174;28;20190;-65
2021/05/18 00:35:15;;;;;;;22.97;20.17;;;10.70;99.90;;;;;;5052501;28;20659;-64
2021/05/18 00:37:41;;;;;;;24.67;21.20;;;10.70;99.90;;;;;;5040871;28;20515;-65
2021/05/18 00:40:10;;;;;;;25.87;20.27;;;10.70;99.90;;;;;;5032348;28;20175;-64
2021/05/18 00:42:47;;;;;;;31.60;21.30;;;10.70;99.90;;;;;;5050806;28;20183;-65
2021/05/18 00:45:14;;;;;;;27.00;21.00;;;10.80;99.90;;;;;;5052279;28;20187;-65
2021/05/18 00:47:40;;;;;;;28.03;20.70;;;10.80;99.90;;;;;;5033584;28;20242;-65
2021/05/18 00:50:06;;;;;;;32.40;19.20;;;10.80;99.90;;;;;;5032141;28;20167;-65
2021/05/18 00:52:32;;;;;;;27.87;19.63;;;10.80;99.90;;;;;;5048843;28;20185;-65
2021/05/18 00:55:05;;;;;;;26.80;17.87;;;10.80;99.90;;;;;;5052230;28;20678;-64
2021/05/18 01:00:16;;;;;;;28.10;18.83;;;10.80;99.90;;;;;;5034712;28;20186;-65
2021/05/18 01:02:44;;;;;;;23.67;18.90;;;10.70;99.90;;;;;;5032019;28;20539;-66
2021/05/18 01:05:18;;;;;;;22.47;18.67;;;10.70;99.90;;;;;;5047423;28;20234;-64
2021/05/18 01:07:45;;;;;;;27.83;19.43;;;10.70;99.90;;;;;;5052251;28;20531;-65
2021/05/18 01:10:12;;;;;;;30.13;18.73;;;10.70;99.90;;;;;;5044468;28;20174;-63
2021/05/18 01:12:37;;;;;;;25.20;17.80;;;10.60;99.90;;;;;;5032003;28;20653;-65
2021/05/18 01:15:04;;;;;;;26.33;17.90;;;10.60;99.90;;;;;;5047602;28;20199;-65
2021/05/18 01:17:29;;;;;;;24.03;18.53;;;10.60;99.90;;;;;;5051759;28;20580;-65
2021/05/18 01:19:55;;;;;;;20.10;17.93;;;10.70;99.90;;;;;;5037838;28;20229;-64
2021/05/18 01:22:20;;;;;;;23.23;17.23;;;10.60;99.90;;;;;;5031690;28;20226;-65
2021/05/18 01:24:46;;;;;;;22.43;17.97;;;10.60;99.90;;;;;;5043240;28;20203;-65
2021/05/18 01:27:12;;;;;;;27.03;17.93;;;10.60;99.90;;;;;;5051545;28;20652;-65
2021/05/18 01:29:37;;;;;;;29.53;19.20;;;10.60;99.90;;;;;;5041327;28;20186;-65
2021/05/18 01:32:07;;;;;;;20.27;16.97;;;10.60;99.90;;;;;;5031537;28;20174;-64
2021/05/18 01:34:33;;;;;;;25.67;17.73;;;10.60;99.90;;;;;;5040171;28;20194;-65
2021/05/18 01:36:59;;;;;;;30.70;18.37;;;10.60;99.90;;;;;;5044929;28;20664;-65
2021/05/18 01:39:55;;;;;;;21.47;18.67;;;10.60;99.90;;;;;;5031459;28;20176;-66
2021/05/18 01:45:14;;;;;;;27.53;18.17;;;10.50;99.90;;;;;;5051426;28;20564;-65
2021/05/18 01:47:41;;;;;;;24.70;18.77;;;10.50;99.90;;;;;;5040817;28;20179;-65
2021/05/18 01:50:07;;;;;;;29.80;18.77;;;10.50;99.90;;;;;;5031286;28;20172;-66
2021/05/18 01:52:33;;;;;;;28.63;18.90;;;10.50;99.90;;;;;;5040162;28;20581;-66
2021/05/18 01:54:59;;;;;;;24.80;19.37;;;10.50;99.90;;;;;;5051354;28;20190;-65
2021/05/18 01:57:26;;;;;;;29.70;19.50;;;10.60;99.90;;;;;;5044387;28;20233;-64
2021/05/18 01:59:52;;;;;;;32.30;20.83;;;10.60;99.90;;;;;;5031829;28;20172;-65
2021/05/18 02:02:19;;;;;;;29.13;22.13;;;10.50;99.90;;;;;;5037260;28;20553;-64
2021/05/18 02:04:51;;;;;;;29.43;21.97;;;10.60;99.90;;;;;;5051201;28;20579;-64
2021/05/18 02:07:39;;;;;;;30.43;21.13;;;10.60;99.90;;;;;;5045733;28;20554;-64
2021/05/18 02:10:11;;;;;;;28.53;20.00;;;10.60;99.90;;;;;;5030502;28;20600;-65
2021/05/18 02:12:37;;;;;;;30.73;18.53;;;10.70;99.90;;;;;;5038244;28;20175;-64
2021/05/18 02:15:17;;;;;;;20.13;17.43;;;10.70;99.90;;;;;;5051203;28;20199;-65
2021/05/18 02:17:55;;;;;;;23.63;16.03;;;10.70;99.90;;;;;;5043299;28;20179;-64
2021/05/18 02:20:33;;;;;;;28.03;15.33;;;10.60;99.90;;;;;;5030923;28;20172;-64
2021/05/18 02:25:43;;;;;;;29.07;18.27;;;10.60;99.90;;;;;;5051168;28;20201;-64
2021/05/18 02:28:09;;;;;;;28.30;18.70;;;10.50;99.90;;;;;;5041238;28;20485;-64
2021/05/18 02:30:36;;;;;;;28.77;19.30;;;10.50;99.90;;;;;;5032413;28;20645;-65
2021/05/18 02:33:03;;;;;;;27.90;19.40;;;10.50;99.90;;;;;;5051057;28;20559;-64
2021/05/18 02:35:29;;;;;;;23.40;18.30;;;10.50;99.90;;;;;;5050033;28;20199;-64
2021/05/18 02:37:55;;;;;;;28.47;19.03;;;10.50;99.90;;;;;;5031524;28;20186;-64
2021/05/18 02:40:27;;;;;;;25.13;16.97;;;10.50;99.90;;;;;;5030664;28;20176;-65
2021/05/18 02:42:53;;;;;;;31.73;17.73;;;10.50;99.90;;;;;;5050409;28;20199;-64
2021/05/18 02:50:36;;;;;;;31.77;15.90;;;10.60;99.90;;;;;;5033807;28;20672;-64
2021/05/18 02:53:02;;;;;;;32.23;16.60;;;10.60;99.90;;;;;;5034683;28;20190;-63
2021/05/18 02:55:44;;;;;;;28.60;16.03;;;10.60;99.90;;;;;;5032744;28;20203;-65
2021/05/18 02:58:12;;;;;;;18.50;15.40;;;10.60;99.90;;;;;;5054278;28;20250;-64
2021/05/18 03:00:38;;;;;;;26.27;17.17;;;10.60;99.90;;;;;;5052342;28;20182;-64
2021/05/18 03:03:04;;;;;;;29.70;18.00;;;10.40;99.90;;;;;;5034421;28;20196;-64
2021/05/18 03:05:29;;;;;;;27.30;17.03;;;10.40;99.90;;;;;;5034144;28;20214;-64
2021/05/18 03:07:55;;;;;;;28.57;18.47;;;10.30;99.90;;;;;;5052838;28;20244;-64
2021/05/18 03:10:21;;;;;;;31.83;17.33;;;10.30;99.90;;;;;;5053867;28;20595;-64
2021/05/18 03:12:48;;;;;;;27.50;18.70;;;10.30;99.90;;;;;;5037033;28;20214;-65
2021/05/18 03:15:15;;;;;;;31.83;18.03;;;10.30;99.90;;;;;;5040021;28;20191;-65
2021/05/18 03:17:41;;;;;;;28.63;15.97;;;10.30;99.90;;;;;;5054049;28;20544;-65
2021/05/18 03:20:10;;;;;;;27.53;16.77;;;10.30;99.90;;;;;;5049230;28;20171;-64
2021/05/18 03:22:36;;;;;;;24.23;14.83;;;10.20;99.90;;;;;;5034020;28;20254;-65
2021/05/18 03:25:03;;;;;;;28.43;14.07;;;10.20;99.90;;;;;;5045004;28;20341;-65
2021/05/18 03:27:29;;;;;;;23.20;14.50;;;10.30;99.90;;;;;;5053628;28;20186;-64
2021/05/18 03:29:55;;;;;;;30.67;13.90;;;10.20;99.90;;;;;;5043294;28;20641;-64
2021/05/18 03:35:06;;;;;;;23.87;15.77;;;10.20;99.90;;;;;;5044654;28;20209;-65
2021/05/18 03:40:17;;;;;;;27.13;14.97;;;10.10;99.90;;;;;;5041497;28;20195;-64
2021/05/18 03:45:31;;;;;;;26.47;16.00;;;10.10;99.90;;;;;;5031542;28;20218;-64
2021/05/18 03:53:51;;;;;;;29.90;15.60;;;10.10;99.90;;;;;;5047524;28;20194;-66
2021/05/18 04:02:41;;;;;;;23.93;15.43;;;10.10;99.90;;;;;;5035122;28;20198;-65
2021/05/18 04:04:35;;;;;;;25.13;15.53;;;10.10;99.90;;;;;;5108383;22;21326;-64
2021/05/18 04:12:44;;;;;;;30.53;15.33;;;10.10;99.90;;;;;;5069497;28;20185;-65
2021/05/18 04:39:20;;;;;;;15.53;10.87;;;10.40;99.90;;;;;;5034084;28;20185;-65
2021/05/18 04:42:13;;;;;;;16.57;10.13;;;10.50;99.90;;;;;;5052317;28;20218;-66
2021/05/18 04:50:21;;;;;;;25.13;12.07;;;10.50;99.90;;;;;;5049108;28;20186;-65
2021/05/18 04:53:16;;;;;;;16.73;10.87;;;10.50;99.90;;;;;;5049040;28;20186;-65
2021/05/18 05:01:15;;;;;;;20.23;9.80;;;10.60;99.90;;;;;;5052106;28;20585;-65
2021/05/18 05:14:18;;;;;;;14.53;9.63;;;10.80;99.90;;;;;;5044398;28;20190;-65
2021/05/18 05:16:44;;;;;;;19.27;10.00;;;10.80;99.90;;;;;;5037031;28;20179;-66
2021/05/18 05:19:10;;;;;;;15.77;10.20;;;10.80;99.90;;;;;;5052132;28;20196;-64
2021/05/18 05:21:36;;;;;;;23.87;10.27;;;10.80;99.90;;;;;;5047618;28;20202;-66
2021/05/18 05:24:02;;;;;;;16.50;9.07;;;10.90;99.90;;;;;;5031785;28;20202;-65
2021/05/18 05:26:29;;;;;;;18.40;9.70;;;10.80;99.90;;;;;;5033460;28;20176;-65
2021/05/18 05:28:55;;;;;;;17.00;9.90;;;10.90;99.90;;;;;;5051118;28;20167;-65
2021/05/18 05:31:20;;;;;;;17.80;9.70;;;10.90;99.90;;;;;;5051016;28;20173;-65
2021/05/18 05:33:46;;;;;;;16.43;9.87;;;11.00;99.90;;;;;;5031680;28;20559;-65
2021/05/18 05:36:11;;;;;;;17.53;9.17;;;11.10;99.90;;;;;;5031592;28;20687;-65
2021/05/18 05:38:38;;;;;;;16.03;8.80;;;11.10;99.90;;;;;;5049477;28;20186;-66
2021/05/18 05:41:04;;;;;;;22.27;11.10;;;11.00;99.90;;;;;;5048876;28;20230;-66
2021/05/18 05:43:30;;;;;;;24.00;9.90;;;10.90;99.90;;;;;;5050040;28;20199;-66
2021/05/18 05:45:56;;;;;;;18.03;10.20;;;10.90;99.90;;;;;;5036508;28;20188;-65
2021/05/18 05:48:21;;;;;;;17.70;10.90;;;10.90;99.90;;;;;;5031561;28;20233;-65
2021/05/18 05:50:48;;;;;;;20.00;10.83;;;10.80;99.90;;;;;;5043375;28;20182;-65
2021/05/18 05:53:14;;;;;;;17.63;9.93;;;10.90;99.90;;;;;;5051279;28;20178;-64
2021/05/18 05:55:40;;;;;;;11.73;9.50;;;10.90;99.90;;;;;;5039804;28;20225;-65
2021/05/18 05:58:06;;;;;;;21.80;9.93;;;10.80;99.90;;;;;;5033434;28;20187;-65
2021/05/18 06:00:32;;;;;;;20.00;9.80;;;10.60;99.90;;;;;;5033101;28;20183;-64
2021/05/18 06:02:58;;;;;;;13.40;9.23;;;10.50;99.90;;;;;;5031485;28;20203;-64
2021/05/18 06:05:23;;;;;;;16.27;9.33;;;10.40;99.90;;;;;;5050765;28;20256;-64
2021/05/18 06:07:49;;;;;;;14.43;9.00;;;10.40;99.90;;;;;;5051141;28;20163;-65
2021/05/18 06:10:17;;;;;;;15.73;10.53;;;10.30;99.90;;;;;;5031574;28;20548;-64
2021/05/18 06:13:02;;;;;;;12.27;10.07;;;10.30;99.90;;;;;;5033334;28;20659;-65
2021/05/18 06:47:33;;;;;;;19.80;11.93;;;10.90;99.90;;;;;;5049494;28;20182;-65
2021/05/18 06:50:42;;;;;;;22.87;14.60;;;11.00;99.90;;;;;;5054300;28;20705;-66
2021/05/18 06:52:49;;;;;;;18.17;14.20;;;11.20;99.90;;;;;;5044908;28;20191;-65
2021/05/18 06:55:21;;;;;;;26.23;17.13;;;11.30;99.90;;;;;;5053525;28;20901;-65
2021/05/18 06:57:49;;;;;;;32.13;18.70;;;11.40;99.90;;;;;;5036987;28;20198;-65
2021/05/18 07:00:20;;;;;;;31.97;19.53;;;11.50;99.90;;;;;;5034227;28;20226;-65
2021/05/18 07:02:51;;;;;;;29.10;20.23;;;11.50;99.90;;;;;;5050658;28;20172;-66
2021/05/18 07:05:31;;;;;;;28.60;19.47;;;11.50;99.90;;;;;;5054004;28;20205;-65
2021/05/18 07:08:29;;;;;;;33.10;19.77;;;11.70;99.90;;;;;;5036628;28;20546;-65
2021/05/18 07:10:46;;;;;;;27.13;19.57;;;11.80;99.90;;;;;;5033715;28;20190;-64
2021/05/18 07:13:14;;;;;;;37.57;21.17;;;11.80;99.90;;;;;;5052879;28;20182;-65
2021/05/18 07:15:39;;;;;;;30.60;20.47;;;12.00;99.90;;;;;;5036545;28;20261;-65
2021/05/18 07:18:06;;;;;;;28.90;20.57;;;12.00;99.90;;;;;;5034277;28;20257;-66
2021/05/18 07:20:32;;;;;;;26.37;19.83;;;12.20;99.90;;;;;;5049015;28;20241;-65
2021/05/18 07:23:08;;;;;;;28.30;18.93;;;12.40;99.90;;;;;;5053806;28;20175;-65
2021/05/18 07:25:34;;;;;;;28.83;18.80;;;12.60;99.90;;;;;;5037970;28;20610;-65
2021/05/18 07:28:05;;;;;;;29.07;16.10;;;12.80;99.90;;;;;;5033988;28;20263;-65
2021/05/18 07:30:31;;;;;;;25.93;15.57;;;13.10;99.90;;;;;;5047635;28;20515;-65
2021/05/18 07:32:57;;;;;;;19.70;14.47;;;13.30;99.90;;;;;;5053679;28;20182;-65
2021/05/18 07:35:22;;;;;;;17.73;13.83;;;13.40;99.90;;;;;;5039333;28;20205;-66
2021/05/18 07:37:48;;;;;;;17.93;13.47;;;13.60;99.90;;;;;;5033456;28;20168;-66
2021/05/18 07:40:14;;;;;;;16.87;13.07;;;13.70;99.90;;;;;;5044240;28;20266;-65
2021/05/18 07:42:39;;;;;;;19.07;13.70;;;13.80;99.90;;;;;;5053632;28;20688;-65
2021/05/18 07:45:06;;;;;;;18.50;14.23;;;13.70;99.90;;;;;;5044005;28;20218;-65
2021/05/18 07:47:35;;;;;;;21.70;13.60;;;13.90;99.90;;;;;;5033677;28;20218;-66
2021/05/18 07:50:05;;;;;;;22.10;14.47;;;14.10;99.90;;;;;;5041246;28;20269;-66
2021/05/18 08:05:49;;;;;;;14.10;10.87;;;14.70;99.90;;;;;;5034436;28;20258;-66
2021/05/18 08:08:14;;;;;;;14.43;10.60;;;14.90;99.90;;;;;;5033818;28;20168;-65
2021/05/18 08:10:51;;;;;;;16.90;10.23;;;14.50;99.90;;;;;;5033054;28;20645;-66
2021/05/18 08:13:22;;;;;;;17.50;13.00;;;13.70;99.90;;;;;;5033439;28;20252;-66
2021/05/18 08:49:21;;;;;;;26.43;16.87;;;11.80;99.90;;;;;;5050701;28;20236;-65
2021/05/18 10:15:08;;;;;;;9.17;8.20;;;16.90;99.90;;;;;;5071268;28;20231;-67
2021/05/18 10:38:32;;;;;;;7.80;6.27;;;16.90;99.90;;;;;;5043055;28;20190;-66
2021/05/18 10:41:18;;;;;;;6.00;5.40;;;17.00;99.90;;;;;;5050308;28;20217;-66
2021/05/18 10:44:05;;;;;;;8.47;5.57;;;17.00;99.90;;;;;;5036394;28;20222;-66
2021/05/18 10:46:49;;;;;;;6.00;5.40;;;17.10;99.90;;;;;;5040761;28;20340;-66
2021/05/18 10:49:18;;;;;;;6.90;4.93;;;17.70;99.90;;;;;;5049508;28;20167;-67
2021/05/18 10:51:52;;;;;;;7.13;4.60;;;18.40;99.90;;;;;;5030762;28;20164;-65
2021/05/18 10:54:22;;;;;;;7.60;4.23;;;18.60;99.90;;;;;;5031262;28;20179;-65
2021/05/18 10:56:57;;;;;;;5.67;4.90;;;18.30;99.90;;;;;;5050701;28;20206;-66
2021/05/18 10:59:30;;;;;;;8.87;6.93;;;17.60;99.90;;;;;;5049298;28;20166;-66
2021/05/18 11:02:06;;;;;;;9.07;8.23;;;16.20;99.90;;;;;;5030730;28;20194;-66
2021/05/18 11:04:42;;;;;;;10.53;6.60;;;14.60;99.90;;;;;;5032173;28;20206;-67
2021/05/18 11:07:11;;;;;;;8.90;7.97;;;13.60;99.90;;;;;;5049241;28;20198;-67
2021/05/18 11:09:38;;;;;;;7.37;6.53;;;13.00;99.90;;;;;;5049849;28;20608;-66
2021/05/18 11:12:19;;;;;;;6.43;5.70;;;12.40;99.90;;;;;;5034243;28;20435;-67
2021/05/18 11:15:25;;;;;;;6.97;6.33;;;12.00;99.90;;;;;;5038402;28;20523;-66
2021/05/18 11:17:52;;;;;;;5.73;5.23;;;11.80;99.90;;;;;;5034319;28;20176;-66
2021/05/18 11:21:07;;;;;;;5.83;5.33;;;11.80;99.90;;;;;;5044093;28;20178;-66
2021/05/18 11:23:22;;;;;;;7.43;6.73;;;11.90;99.90;;;;;;5046697;28;20222;-66
2021/05/18 11:26:17;;;;;;;8.60;7.70;;;12.40;99.90;;;;;;5039812;28;20676;-67
2021/05/18 11:28:43;;;;;;;10.83;8.53;;;12.70;99.90;;;;;;5042958;28;20270;-66
2021/05/18 11:31:13;;;;;;;10.00;8.53;;;13.30;99.90;;;;;;5053460;28;20242;-64
2021/05/18 11:33:42;;;;;;;10.57;9.33;;;13.80;99.90;;;;;;5044542;28;20187;-65
2021/05/18 11:36:10;;;;;;;12.27;9.57;;;14.30;99.90;;;;;;5033796;28;20599;-65
2021/05/18 11:38:56;;;;;;;8.70;7.83;;;14.80;99.90;;;;;;5041680;28;20193;-65
2021/05/18 11:41:26;;;;;;;8.40;7.23;;;15.60;99.90;;;;;;5033490;28;20181;-65
2021/05/18 11:43:54;;;;;;;10.57;6.90;;;16.30;99.90;;;;;;5041556;28;20202;-65
2021/05/18 11:46:21;;;;;;;7.57;6.50;;;17.30;99.90;;;;;;5045544;28;20226;-65
2021/05/18 11:49:07;;;;;;;9.33;5.80;;;18.30;99.90;;;;;;5043839;28;20188;-64
2021/05/18 11:51:47;;;;;;;6.03;5.27;;;18.80;99.90;;;;;;5033056;28;20649;-64
2021/05/18 11:54:15;;;;;;;5.73;4.73;;;19.70;99.90;;;;;;5045629;28;20186;-65
2021/05/18 11:56:42;;;;;;;5.53;4.37;;;19.60;99.90;;;;;;5053329;28;20240;-64
2021/05/18 11:59:10;;;;;;;4.80;4.27;;;20.00;99.90;;;;;;5042028;28;20179;-65
2021/05/18 12:01:37;;;;;;;5.00;4.50;;;20.50;99.90;;;;;;5032894;28;20254;-64
2021/05/18 12:04:07;;;;;;;7.47;4.70;;;20.50;99.90;;;;;;5046582;28;20202;-64
2021/05/18 12:06:35;;;;;;;5.57;4.78;;;20.50;99.90;;;;;;5045194;28;20298;-64
2021/05/18 12:09:03;;;;;;;6.20;4.82;;;20.40;99.90;;;;;;5033173;28;20727;-64
2021/05/18 12:11:28;;;;;;;6.33;5.73;;;20.60;99.90;;;;;;5038782;28;20266;-65
2021/05/18 12:13:54;;;;;;;5.53;5.00;;;20.80;99.90;;;;;;5053128;28;20627;-65
2021/05/18 12:16:22;;;;;;;6.35;5.78;;;21.50;99.90;;;;;;5047962;28;20223;-64
2021/05/18 12:18:56;;;;;;;6.03;5.15;;;21.80;99.90;;;;;;5033072;28;20190;-65
2021/05/18 12:21:23;;;;;;;5.70;5.20;;;21.60;99.90;;;;;;5035948;28;20209;-65
2021/05/18 12:24:26;;;;;;;6.95;5.40;;;21.60;99.90;;;;;;5052840;28;20634;-65
2021/05/18 12:26:58;;;;;;;7.50;5.90;;;21.10;99.90;;;;;;5037151;28;20237;-65
2021/05/18 12:29:42;;;;;;;8.10;5.70;;;20.20;99.90;;;;;;5032593;28;20667;-64
2021/05/18 12:32:26;;;;;;;6.70;5.97;;;19.40;99.90;;;;;;5049655;28;20831;-64
2021/05/18 12:35:14;;;;;;;7.83;7.13;;;18.70;99.90;;;;;;5043291;28;20539;-64
2021/05/18 12:37:48;;;;;;;6.83;6.23;;;18.60;99.90;;;;;;5031463;28;20206;-64
2021/05/18 12:40:26;;;;;;;6.07;5.50;;;19.40;99.90;;;;;;5043450;28;20206;-65
2021/05/18 12:42:53;;;;;;;8.07;7.10;;;20.60;99.90;;;;;;5052396;28;20167;-65
2021/05/18 12:45:21;;;;;;;5.93;5.32;;;21.30;99.90;;;;;;5051410;28;20213;-66
2021/05/18 12:48:00;;;;;;;5.72;5.22;;;21.60;99.90;;;;;;5052662;28;20163;-66
2021/05/18 12:50:36;;;;;;;5.72;5.15;;;22.00;99.90;;;;;;5039810;28;20175;-65
2021/05/18 12:53:02;;;;;;;7.57;6.38;;;22.30;99.90;;;;;;5032403;28;20253;-65
2021/05/18 12:55:29;;;;;;;6.63;5.90;;;22.10;99.90;;;;;;5033439;28;20209;-65
2021/05/18 12:58:04;;;;;;;6.60;5.90;;;21.30;99.90;;;;;;5032495;28;20167;-64
2021/05/18 13:00:35;;;;;;;7.17;6.50;;;19.60;99.90;;;;;;5043461;28;20182;-65
2021/05/18 13:03:11;;;;;;;10.17;9.17;;;18.20;99.90;;;;;;5042616;28;20175;-66
2021/05/18 13:05:37;;;;;;;13.43;9.27;;;16.80;99.90;;;;;;5032106;28;20309;-64
2021/05/18 13:08:11;;;;;;;21.30;12.33;;;15.40;99.90;;;;;;5033463;28;20246;-65
2021/05/18 13:13:11;;;;;;;24.93;14.77;;;12.90;99.90;;;;;;5041493;28;20178;-65
2021/05/18 13:15:37;;;;;;;83.97;19.07;;;12.30;99.90;;;;;;5052138;28;20194;-64
2021/05/18 13:18:05;;;;;;;24.53;18.27;;;11.80;99.90;;;;;;5043965;28;20167;-64
2021/05/18 13:20:36;;;;;;;32.37;19.30;;;11.90;99.90;;;;;;5031730;28;20195;-64
2021/05/18 13:23:03;;;;;;;20.47;18.20;;;11.90;99.90;;;;;;5038941;28;20520;-64
2021/05/18 13:28:13;;;;;;;120.73;25.67;;;11.90;99.90;;;;;;5043651;28;20183;-63
2021/05/18 13:30:39;;;;;;;88.73;30.47;;;11.90;99.90;;;;;;5036827;28;20171;-63
2021/05/18 13:33:07;;;;;;;31.70;25.93;;;12.60;99.90;;;;;;5051530;28;20171;-65
2021/05/18 13:35:33;;;;;;;100.93;24.33;;;14.00;99.90;;;;;;5047365;28;20253;-65
2021/05/18 13:37:59;;;;;;;14.03;12.73;;;15.80;99.90;;;;;;5031888;28;20172;-65
2021/05/18 13:40:26;;;;;;;10.57;9.73;;;17.00;99.90;;;;;;5032502;28;20258;-64
2021/05/18 13:42:53;;;;;;;10.90;9.80;;;17.60;99.90;;;;;;5032657;28;20198;-64
2021/05/18 13:45:22;;;;;;;7.43;6.87;;;18.20;99.90;;;;;;5032175;28;20203;-65
2021/05/18 13:47:50;;;;;;;8.37;7.57;;;19.10;99.90;;;;;;5051843;28;20163;-64
2021/05/18 13:50:16;;;;;;;7.60;6.90;;;20.10;99.90;;;;;;5051166;28;20171;-64
2021/05/18 13:52:42;;;;;;;8.77;6.70;;;20.60;99.90;;;;;;5032828;28;20183;-64
2021/05/18 13:55:09;;;;;;;7.90;7.10;;;20.40;99.90;;;;;;5030997;28;20675;-63
2021/05/18 13:57:34;;;;;;;7.50;6.87;;;19.80;99.90;;;;;;5049670;28;20584;-63
2021/05/18 14:00:00;;;;;;;8.77;7.13;;;19.50;99.90;;;;;;5035321;28;20265;-64
2021/05/18 14:02:26;;;;;;;8.50;7.60;;;18.90;99.90;;;;;;5031341;28;20174;-64
2021/05/18 14:04:52;;;;;;;7.63;6.90;;;18.50;99.90;;;;;;5032925;28;20211;-64
2021/05/18 14:10:39;;;;;;;7.97;7.27;;;17.40;99.90;;;;;;5031045;28;20183;-65
2021/05/18 14:13:04;;;;;;;10.43;9.37;;;17.00;99.90;;;;;;5031277;28;20172;-64
2021/05/18 14:15:30;;;;;;;10.33;8.83;;;16.60;99.90;;;;;;5048972;28;20286;-65
2021/05/18 14:17:56;;;;;;;8.33;7.70;;;16.40;99.90;;;;;;5047342;28;20179;-64
2021/05/18 14:20:22;;;;;;;10.23;8.10;;;16.00;99.90;;;;;;5030925;28;20713;-64
2021/05/18 14:22:47;;;;;;;10.47;9.37;;;15.70;99.90;;;;;;5036951;28;20198;-63
2021/05/18 14:25:13;;;;;;;11.03;9.07;;;15.30;99.90;;;;;;5048515;28;20202;-63
2021/05/18 14:27:39;;;;;;;11.70;10.57;;;14.80;99.90;;;;;;5031352;28;20249;-63
2021/05/18 14:30:11;;;;;;;13.90;12.07;;;14.40;99.90;;;;;;5031373;28;20172;-64
2021/05/18 14:32:38;;;;;;;12.93;11.73;;;14.20;99.90;;;;;;5051234;28;20202;-64
2021/05/18 14:35:05;;;;;;;13.03;11.93;;;14.00;99.90;;;;;;5051214;28;20236;-65
2021/05/18 14:37:31;;;;;;;14.23;12.40;;;13.90;99.90;;;;;;5050916;28;20179;-65
2021/05/18 14:40:07;;;;;;;17.07;13.03;;;13.80;99.90;;;;;;5050743;28;20171;-64
2021/05/18 14:45:20;;;;;;;14.20;12.90;;;13.80;99.90;;;;;;5032812;28;20245;-64
2021/05/18 14:55:40;;;;;;;15.97;14.27;;;14.40;99.90;;;;;;5052952;28;20706;-63
2021/05/18 14:58:06;;;;;;;17.07;13.53;;;14.30;99.90;;;;;;5034605;28;20180;-64
2021/05/18 15:00:33;;;;;;;23.63;16.10;;;14.20;99.90;;;;;;5034246;28;20180;-63
2021/05/18 15:02:58;;;;;;;17.53;15.63;;;14.20;99.90;;;;;;5054508;28;20166;-64
2021/05/18 15:05:25;;;;;;;16.97;12.63;;;14.20;99.90;;;;;;5053534;28;20283;-63
2021/05/18 15:07:51;;;;;;;13.17;11.97;;;14.30;99.90;;;;;;5054630;28;20166;-64
2021/05/18 15:10:17;;;;;;;13.60;12.33;;;14.40;99.90;;;;;;5042396;28;20233;-63
2021/05/18 15:12:43;;;;;;;10.87;9.87;;;15.00;99.90;;;;;;5034558;28;20802;-63
2021/05/18 15:15:09;;;;;;;10.27;9.37;;;15.40;99.90;;;;;;5035384;28;20202;-64
2021/05/18 15:17:35;;;;;;;8.33;7.60;;;16.00;99.90;;;;;;5034363;28;20182;-64
2021/05/18 15:20:00;;;;;;;10.43;9.00;;;16.50;99.90;;;;;;5043319;28;20640;-64
2021/05/18 15:22:28;;;;;;;11.43;10.30;;;16.80;99.90;;;;;;5054191;28;20589;-63
2021/05/18 15:24:54;;;;;;;12.13;10.87;;;16.70;99.90;;;;;;5046128;28;20641;-63
2021/05/18 15:27:21;;;;;;;12.30;11.23;;;16.30;99.90;;;;;;5034071;28;20586;-64
2021/05/18 15:29:47;;;;;;;10.80;9.90;;;16.20;99.90;;;;;;5039911;28;20518;-63
2021/05/18 15:32:13;;;;;;;12.73;10.90;;;16.10;99.90;;;;;;5053945;28;20171;-63
2021/05/18 15:34:38;;;;;;;12.83;11.63;;;15.90;99.90;;;;;;5049330;28;20179;-63
2021/05/18 15:37:04;;;;;;;13.33;12.23;;;15.80;99.90;;;;;;5033886;28;20178;-64
2021/05/18 15:39:31;;;;;;;15.53;14.03;;;15.40;99.90;;;;;;5036110;28;20237;-64
2021/05/18 15:41:56;;;;;;;14.30;12.97;;;15.40;99.90;;;;;;5053628;28;20202;-64
2021/05/18 15:44:22;;;;;;;14.53;13.03;;;15.80;99.90;;;;;;5052026;28;20233;-64
2021/05/18 15:46:48;;;;;;;14.53;12.97;;;15.80;99.90;;;;;;5053086;28;20195;-65
2021/05/18 15:49:13;;;;;;;13.47;12.07;;;15.60;99.90;;;;;;5053667;28;20194;-65
2021/05/18 15:51:40;;;;;;;16.03;13.13;;;15.30;99.90;;;;;;5034176;28;20191;-64
2021/05/18 15:54:06;;;;;;;14.83;13.50;;;15.10;99.90;;;;;;5033672;28;20175;-65
2021/05/18 15:56:34;;;;;;;16.00;14.47;;;14.80;99.90;;;;;;5049412;28;20198;-65
2021/05/18 15:59:00;;;;;;;15.83;14.43;;;14.70;99.90;;;;;;5054001;28;20250;-66
2021/05/18 16:01:26;;;;;;;19.10;15.20;;;14.60;99.90;;;;;;5037299;28;20326;-65
2021/05/18 16:03:51;;;;;;;17.27;15.30;;;14.60;99.90;;;;;;5033545;28;20572;-66
2021/05/18 16:06:18;;;;;;;16.17;14.67;;;14.50;99.90;;;;;;5047591;28;20203;-66
2021/05/18 16:11:10;;;;;;;15.63;14.07;;;14.50;99.90;;;;;;5040844;28;20171;-67
2021/05/18 16:13:38;;;;;;;17.17;15.47;;;14.40;99.90;;;;;;5039819;28;20186;-67
2021/05/18 16:16:07;;;;;;;17.00;15.40;;;14.40;99.90;;;;;;5053332;28;20206;-67
2021/05/18 16:18:35;;;;;;;16.93;15.33;;;14.60;99.90;;;;;;5047396;28;20933;-65
2021/05/18 16:21:01;;;;;;;15.30;13.80;;;15.20;99.90;;;;;;5033250;28;20206;-67
2021/05/18 16:23:28;;;;;;;14.20;12.80;;;15.60;99.90;;;;;;5036625;28;20811;-67
2021/05/18 16:25:57;;;;;;;14.83;11.67;;;15.70;99.90;;;;;;5051721;28;20282;-66
2021/05/18 16:28:24;;;;;;;13.77;12.47;;;15.70;99.90;;;;;;5049185;28;20186;-65
2021/05/18 16:30:50;;;;;;;10.60;9.60;;;15.80;99.90;;;;;;5032609;28;20175;-66
2021/05/18 16:33:17;;;;;;;11.53;10.43;;;16.60;99.90;;;;;;5034989;28;20255;-66
2021/05/18 16:35:43;;;;;;;9.20;8.43;;;17.20;99.90;;;;;;5053071;28;20190;-67
2021/05/18 16:38:09;;;;;;;11.30;9.43;;;17.80;99.90;;;;;;5052195;28;20825;-66
2021/05/18 16:40:35;;;;;;;10.57;9.50;;;18.00;99.90;;;;;;5032799;28;20163;-67
2021/05/18 16:43:01;;;;;;;9.03;8.23;;;18.40;99.90;;;;;;5050145;28;20178;-64
2021/05/18 16:45:27;;;;;;;11.53;8.50;;;18.60;99.90;;;;;;5052311;28;20206;-64
2021/05/18 16:47:52;;;;;;;10.97;9.33;;;18.20;99.90;;;;;;5050677;28;20179;-65
2021/05/18 16:50:18;;;;;;;10.57;8.97;;;17.60;99.90;;;;;;5052111;28;20185;-64
2021/05/18 16:52:44;;;;;;;10.17;9.27;;;17.00;99.90;;;;;;5038548;28;20203;-65
2021/05/18 16:55:11;;;;;;;10.33;9.23;;;16.70;99.90;;;;;;5032369;28;20187;-65
2021/05/18 16:57:37;;;;;;;10.73;9.83;;;16.30;99.90;;;;;;5044351;28;20179;-65
2021/05/18 17:00:10;;;;;;;10.50;9.60;;;16.10;99.90;;;;;;5052096;28;20177;-65
2021/05/18 17:02:36;;;;;;;9.97;8.97;;;15.80;99.90;;;;;;5040742;28;20179;-64
2021/05/18 17:05:04;;;;;;;11.77;9.47;;;15.50;99.90;;;;;;5032222;28;20200;-65
2021/05/18 17:07:29;;;;;;;11.53;9.93;;;15.30;99.90;;;;;;5041437;28;20273;-64
2021/05/18 17:09:55;;;;;;;11.90;10.70;;;15.10;99.90;;;;;;5044379;28;20254;-65
2021/05/18 17:12:21;;;;;;;12.87;11.50;;;15.00;99.90;;;;;;5032085;28;20649;-64
2021/05/18 17:14:48;;;;;;;13.33;11.93;;;15.00;99.90;;;;;;5037531;28;20206;-64
2021/05/18 17:17:15;;;;;;;9.63;8.70;;;15.10;99.90;;;;;;5051802;28;20235;-65
2021/05/18 17:19:43;;;;;;;8.87;8.00;;;15.80;99.90;;;;;;5047385;28;20229;-67
2021/05/18 17:22:10;;;;;;;9.73;8.83;;;16.70;99.90;;;;;;5031819;28;20649;-65
2021/05/18 17:24:36;;;;;;;9.40;8.50;;;17.40;99.90;;;;;;5034589;28;20208;-64
2021/05/18 17:27:02;;;;;;;10.50;8.67;;;17.50;99.90;;;;;;5051808;28;20195;-65
2021/05/18 17:29:28;;;;;;;13.83;11.07;;;16.90;99.90;;;;;;5050482;28;20167;-64
2021/05/18 17:31:54;;;;;;;12.10;10.50;;;16.30;99.90;;;;;;5031699;28;20636;-64
2021/05/18 17:34:20;;;;;;;14.10;10.27;;;16.00;99.90;;;;;;5031732;28;20232;-65